sensor_id;sensor_type;location;lat;lon;timestamp;temperature;humidity
44063;DHT22;29727;47.606;19.130;2022-07-18T00:02:19;19.30;54.70
44063;DHT22;29727;47.606;19.130;2022-07-18T00:04:45;19.30;53.70
44063;DHT22;29727;47.606;19.130;2022-07-18T00:07:12;19.30;54.10
44063;DHT22;29727;47.606;19.130;2022-07-18T00:09:39;19.20;54.00
44063;DHT22;29727;47.606;19.130;2022-07-18T00:12:06;19.20;53.10
44063;DHT22;29727;47.606;19.130;2022-07-18T00:14:33;19.20;53.40
44063;DHT22;29727;47.606;19.130;2022-07-18T00:16:59;19.20;53.60
44063;DHT22;29727;47.606;19.130;2022-07-18T00:19:25;19.10;53.60
44063;DHT22;29727;47.606;19.130;2022-07-18T00:21:51;19.10;53.30
44063;DHT22;29727;47.606;19.130;2022-07-18T00:24:17;19.10;53.10
44063;DHT22;29727;47.606;19.130;2022-07-18T00:26:43;19.10;52.40
44063;DHT22;29727;47.606;19.130;2022-07-18T00:29:09;19.10;52.20
44063;DHT22;29727;47.606;19.130;2022-07-18T00:31:34;19.10;51.80
44063;DHT22;29727;47.606;19.130;2022-07-18T00:34:00;19.00;50.60
44063;DHT22;29727;47.606;19.130;2022-07-18T00:36:28;19.00;50.90
44063;DHT22;29727;47.606;19.130;2022-07-18T00:38:53;19.00;51.30
44063;DHT22;29727;47.606;19.130;2022-07-18T00:41:19;19.00;51.20
44063;DHT22;29727;47.606;19.130;2022-07-18T00:43:45;18.90;51.40
44063;DHT22;29727;47.606;19.130;2022-07-18T00:46:11;18.90;52.00
44063;DHT22;29727;47.606;19.130;2022-07-18T00:48:38;18.90;52.00
44063;DHT22;29727;47.606;19.130;2022-07-18T00:51:04;18.90;51.80
44063;DHT22;29727;47.606;19.130;2022-07-18T00:53:30;18.90;51.30
44063;DHT22;29727;47.606;19.130;2022-07-18T00:55:55;18.90;50.80
44063;DHT22;29727;47.606;19.130;2022-07-18T00:58:21;18.90;50.80
44063;DHT22;29727;47.606;19.130;2022-07-18T01:00:47;18.90;50.50
44063;DHT22;29727;47.606;19.130;2022-07-18T01:03:31;18.90;50.50
44063;DHT22;29727;47.606;19.130;2022-07-18T01:05:57;18.90;52.20
44063;DHT22;29727;47.606;19.130;2022-07-18T01:08:23;18.80;53.00
44063;DHT22;29727;47.606;19.130;2022-07-18T01:10:49;18.70;53.50
44063;DHT22;29727;47.606;19.130;2022-07-18T01:13:17;18.60;53.90
44063;DHT22;29727;47.606;19.130;2022-07-18T01:15:43;18.60;54.50
44063;DHT22;29727;47.606;19.130;2022-07-18T01:18:09;18.50;54.40
44063;DHT22;29727;47.606;19.130;2022-07-18T01:20:35;18.40;55.00
44063;DHT22;29727;47.606;19.130;2022-07-18T01:23:00;18.30;54.90
44063;DHT22;29727;47.606;19.130;2022-07-18T01:25:27;18.30;54.80
44063;DHT22;29727;47.606;19.130;2022-07-18T01:27:53;18.30;55.30
44063;DHT22;29727;47.606;19.130;2022-07-18T01:30:19;18.30;55.20
44063;DHT22;29727;47.606;19.130;2022-07-18T01:32:45;18.20;55.10
44063;DHT22;29727;47.606;19.130;2022-07-18T01:35:11;18.30;54.70
44063;DHT22;29727;47.606;19.130;2022-07-18T01:37:37;18.20;53.70
44063;DHT22;29727;47.606;19.130;2022-07-18T01:40:12;18.20;53.60
44063;DHT22;29727;47.606;19.130;2022-07-18T01:42:38;18.20;53.40
44063;DHT22;29727;47.606;19.130;2022-07-18T01:45:04;18.20;54.00
44063;DHT22;29727;47.606;19.130;2022-07-18T01:47:30;18.20;54.60
44063;DHT22;29727;47.606;19.130;2022-07-18T01:49:55;18.10;54.30
44063;DHT22;29727;47.606;19.130;2022-07-18T01:52:21;18.20;55.40
44063;DHT22;29727;47.606;19.130;2022-07-18T01:54:46;18.20;55.40
44063;DHT22;29727;47.606;19.130;2022-07-18T01:57:12;18.20;55.40
44063;DHT22;29727;47.606;19.130;2022-07-18T01:59:38;18.10;55.70
44063;DHT22;29727;47.606;19.130;2022-07-18T02:02:05;18.20;56.10
44063;DHT22;29727;47.606;19.130;2022-07-18T02:04:30;18.10;56.40
44063;DHT22;29727;47.606;19.130;2022-07-18T02:07:15;18.10;56.60
44063;DHT22;29727;47.606;19.130;2022-07-18T02:09:41;18.10;56.80
44063;DHT22;29727;47.606;19.130;2022-07-18T02:12:06;18.10;57.00
44063;DHT22;29727;47.606;19.130;2022-07-18T02:14:32;18.10;57.20
44063;DHT22;29727;47.606;19.130;2022-07-18T02:16:58;18.10;57.40
44063;DHT22;29727;47.606;19.130;2022-07-18T02:19:23;18.10;57.40
44063;DHT22;29727;47.606;19.130;2022-07-18T02:21:49;18.10;57.70
44063;DHT22;29727;47.606;19.130;2022-07-18T02:24:15;18.10;58.10
44063;DHT22;29727;47.606;19.130;2022-07-18T02:26:40;18.10;58.90
44063;DHT22;29727;47.606;19.130;2022-07-18T02:29:06;18.10;60.10
44063;DHT22;29727;47.606;19.130;2022-07-18T02:31:32;18.00;60.50
44063;DHT22;29727;47.606;19.130;2022-07-18T02:33:57;18.00;60.90
44063;DHT22;29727;47.606;19.130;2022-07-18T02:36:23;17.90;60.80
44063;DHT22;29727;47.606;19.130;2022-07-18T02:38:49;17.90;61.00
44063;DHT22;29727;47.606;19.130;2022-07-18T02:41:14;17.80;61.20
44063;DHT22;29727;47.606;19.130;2022-07-18T02:43:40;17.80;61.20
44063;DHT22;29727;47.606;19.130;2022-07-18T02:46:06;17.80;61.20
44063;DHT22;29727;47.606;19.130;2022-07-18T02:48:31;17.80;60.70
44063;DHT22;29727;47.606;19.130;2022-07-18T02:50:57;17.70;60.90
44063;DHT22;29727;47.606;19.130;2022-07-18T02:53:23;17.70;61.20
44063;DHT22;29727;47.606;19.130;2022-07-18T02:55:50;17.60;61.00
44063;DHT22;29727;47.606;19.130;2022-07-18T02:58:16;17.60;60.40
44063;DHT22;29727;47.606;19.130;2022-07-18T03:00:42;17.60;59.50
44063;DHT22;29727;47.606;19.130;2022-07-18T03:03:08;17.60;59.70
44063;DHT22;29727;47.606;19.130;2022-07-18T03:05:33;17.60;59.30
44063;DHT22;29727;47.606;19.130;2022-07-18T03:07:59;17.60;59.50
44063;DHT22;29727;47.606;19.130;2022-07-18T03:10:25;17.60;59.30
44063;DHT22;29727;47.606;19.130;2022-07-18T03:12:50;17.60;58.90
44063;DHT22;29727;47.606;19.130;2022-07-18T03:15:16;17.60;58.00
44063;DHT22;29727;47.606;19.130;2022-07-18T03:17:42;17.70;58.00
44063;DHT22;29727;47.606;19.130;2022-07-18T03:20:08;17.70;57.60
44063;DHT22;29727;47.606;19.130;2022-07-18T03:22:34;17.70;57.60
44063;DHT22;29727;47.606;19.130;2022-07-18T03:25:00;17.70;57.00
44063;DHT22;29727;47.606;19.130;2022-07-18T03:27:26;17.70;56.50
44063;DHT22;29727;47.606;19.130;2022-07-18T03:29:51;17.70;56.40
44063;DHT22;29727;47.606;19.130;2022-07-18T03:32:17;17.80;56.70
44063;DHT22;29727;47.606;19.130;2022-07-18T03:34:43;17.80;56.40
44063;DHT22;29727;47.606;19.130;2022-07-18T03:37:09;17.80;56.10
44063;DHT22;29727;47.606;19.130;2022-07-18T03:39:34;17.80;55.80
44063;DHT22;29727;47.606;19.130;2022-07-18T03:42:00;17.80;55.90
44063;DHT22;29727;47.606;19.130;2022-07-18T03:44:26;17.90;55.60
44063;DHT22;29727;47.606;19.130;2022-07-18T03:46:51;17.90;55.90
44063;DHT22;29727;47.606;19.130;2022-07-18T03:49:19;17.90;55.40
44063;DHT22;29727;47.606;19.130;2022-07-18T03:51:45;17.90;55.60
44063;DHT22;29727;47.606;19.130;2022-07-18T03:54:11;17.90;56.00
44063;DHT22;29727;47.606;19.130;2022-07-18T03:56:37;17.90;56.00
44063;DHT22;29727;47.606;19.130;2022-07-18T03:59:02;17.90;54.80
44063;DHT22;29727;47.606;19.130;2022-07-18T04:01:28;17.90;55.30
44063;DHT22;29727;47.606;19.130;2022-07-18T04:03:54;17.90;54.80
44063;DHT22;29727;47.606;19.130;2022-07-18T04:06:20;18.00;54.20
44063;DHT22;29727;47.606;19.130;2022-07-18T04:08:45;18.00;54.00
44063;DHT22;29727;47.606;19.130;2022-07-18T04:11:11;18.00;54.00
44063;DHT22;29727;47.606;19.130;2022-07-18T04:13:37;18.00;54.30
44063;DHT22;29727;47.606;19.130;2022-07-18T04:16:03;18.00;54.50
44063;DHT22;29727;47.606;19.130;2022-07-18T04:18:28;18.00;54.80
44063;DHT22;29727;47.606;19.130;2022-07-18T04:20:54;18.00;55.50
44063;DHT22;29727;47.606;19.130;2022-07-18T04:23:20;18.00;55.80
44063;DHT22;29727;47.606;19.130;2022-07-18T04:25:46;18.00;55.60
44063;DHT22;29727;47.606;19.130;2022-07-18T04:28:12;18.00;55.50
44063;DHT22;29727;47.606;19.130;2022-07-18T04:30:39;18.00;55.30
44063;DHT22;29727;47.606;19.130;2022-07-18T04:33:06;18.00;54.90
44063;DHT22;29727;47.606;19.130;2022-07-18T04:35:33;18.00;55.00
44063;DHT22;29727;47.606;19.130;2022-07-18T04:38:04;18.00;55.10
44063;DHT22;29727;47.606;19.130;2022-07-18T04:40:30;18.10;55.30
44063;DHT22;29727;47.606;19.130;2022-07-18T04:42:55;18.10;54.80
44063;DHT22;29727;47.606;19.130;2022-07-18T04:45:21;18.20;55.40
44063;DHT22;29727;47.606;19.130;2022-07-18T04:47:52;18.20;55.10
44063;DHT22;29727;47.606;19.130;2022-07-18T04:50:19;18.20;55.20
44063;DHT22;29727;47.606;19.130;2022-07-18T04:52:46;18.30;54.10
44063;DHT22;29727;47.606;19.130;2022-07-18T04:55:14;18.30;54.40
44063;DHT22;29727;47.606;19.130;2022-07-18T04:57:40;18.40;54.90
44063;DHT22;29727;47.606;19.130;2022-07-18T05:00:15;18.40;55.60
44063;DHT22;29727;47.606;19.130;2022-07-18T05:02:46;18.50;54.80
44063;DHT22;29727;47.606;19.130;2022-07-18T05:05:13;18.60;55.20
44063;DHT22;29727;47.606;19.130;2022-07-18T05:07:40;18.60;54.50
44063;DHT22;29727;47.606;19.130;2022-07-18T05:10:08;18.70;53.90
44063;DHT22;29727;47.606;19.130;2022-07-18T05:12:38;18.80;52.50
44063;DHT22;29727;47.606;19.130;2022-07-18T05:15:06;18.80;52.40
44063;DHT22;29727;47.606;19.130;2022-07-18T05:17:32;18.90;51.90
44063;DHT22;29727;47.606;19.130;2022-07-18T05:19:58;18.90;52.10
44063;DHT22;29727;47.606;19.130;2022-07-18T05:22:23;19.00;52.70
44063;DHT22;29727;47.606;19.130;2022-07-18T05:24:50;19.10;52.90
44063;DHT22;29727;47.606;19.130;2022-07-18T05:27:16;19.10;52.00
44063;DHT22;29727;47.606;19.130;2022-07-18T05:29:42;19.20;51.80
44063;DHT22;29727;47.606;19.130;2022-07-18T05:32:08;19.20;51.50
44063;DHT22;29727;47.606;19.130;2022-07-18T05:34:34;19.30;52.40
44063;DHT22;29727;47.606;19.130;2022-07-18T05:36:59;19.40;52.20
44063;DHT22;29727;47.606;19.130;2022-07-18T05:39:26;19.50;51.70
44063;DHT22;29727;47.606;19.130;2022-07-18T05:41:52;19.60;52.50
44063;DHT22;29727;47.606;19.130;2022-07-18T05:44:18;19.70;51.80
44063;DHT22;29727;47.606;19.130;2022-07-18T05:46:46;19.70;52.30
44063;DHT22;29727;47.606;19.130;2022-07-18T05:49:12;19.80;51.10
44063;DHT22;29727;47.606;19.130;2022-07-18T05:51:38;19.90;51.20
44063;DHT22;29727;47.606;19.130;2022-07-18T05:54:04;20.00;50.50
44063;DHT22;29727;47.606;19.130;2022-07-18T05:56:29;20.10;50.90
44063;DHT22;29727;47.606;19.130;2022-07-18T05:58:55;20.10;51.50
44063;DHT22;29727;47.606;19.130;2022-07-18T06:01:21;20.20;50.30
44063;DHT22;29727;47.606;19.130;2022-07-18T06:03:47;20.30;50.70
44063;DHT22;29727;47.606;19.130;2022-07-18T06:06:13;20.40;49.50
44063;DHT22;29727;47.606;19.130;2022-07-18T06:08:39;20.50;49.20
44063;DHT22;29727;47.606;19.130;2022-07-18T06:11:05;20.50;48.70
44063;DHT22;29727;47.606;19.130;2022-07-18T06:13:33;20.60;48.80
44063;DHT22;29727;47.606;19.130;2022-07-18T06:15:58;20.70;48.60
44063;DHT22;29727;47.606;19.130;2022-07-18T06:18:24;20.80;48.30
44063;DHT22;29727;47.606;19.130;2022-07-18T06:20:50;20.90;48.10
44063;DHT22;29727;47.606;19.130;2022-07-18T06:23:15;21.00;48.40
44063;DHT22;29727;47.606;19.130;2022-07-18T06:25:41;21.10;48.70
44063;DHT22;29727;47.606;19.130;2022-07-18T06:28:07;21.20;48.10
44063;DHT22;29727;47.606;19.130;2022-07-18T06:30:33;21.30;48.10
44063;DHT22;29727;47.606;19.130;2022-07-18T06:32:58;21.40;47.40
44063;DHT22;29727;47.606;19.130;2022-07-18T06:35:24;21.50;48.30
44063;DHT22;29727;47.606;19.130;2022-07-18T06:37:50;21.60;47.60
44063;DHT22;29727;47.606;19.130;2022-07-18T06:40:15;21.80;47.30
44063;DHT22;29727;47.606;19.130;2022-07-18T06:42:41;21.90;46.80
44063;DHT22;29727;47.606;19.130;2022-07-18T06:45:07;22.00;45.30
44063;DHT22;29727;47.606;19.130;2022-07-18T06:47:33;22.10;46.00
44063;DHT22;29727;47.606;19.130;2022-07-18T06:49:59;22.30;45.50
44063;DHT22;29727;47.606;19.130;2022-07-18T06:52:24;22.40;44.20
44063;DHT22;29727;47.606;19.130;2022-07-18T06:54:50;22.50;44.70
44063;DHT22;29727;47.606;19.130;2022-07-18T06:57:16;22.60;44.70
44063;DHT22;29727;47.606;19.130;2022-07-18T06:59:42;22.70;43.00
44063;DHT22;29727;47.606;19.130;2022-07-18T07:02:08;22.80;45.30
44063;DHT22;29727;47.606;19.130;2022-07-18T07:04:33;22.90;44.50
44063;DHT22;29727;47.606;19.130;2022-07-18T07:06:59;23.00;42.50
44063;DHT22;29727;47.606;19.130;2022-07-18T07:09:25;23.10;43.00
44063;DHT22;29727;47.606;19.130;2022-07-18T07:11:51;23.20;43.30
44063;DHT22;29727;47.606;19.130;2022-07-18T07:14:16;23.30;42.00
44063;DHT22;29727;47.606;19.130;2022-07-18T07:16:42;23.40;43.60
44063;DHT22;29727;47.606;19.130;2022-07-18T07:19:08;23.50;43.80
44063;DHT22;29727;47.606;19.130;2022-07-18T07:21:33;23.60;42.20
44063;DHT22;29727;47.606;19.130;2022-07-18T07:23:59;23.70;43.10
44063;DHT22;29727;47.606;19.130;2022-07-18T07:26:25;23.70;41.20
44063;DHT22;29727;47.606;19.130;2022-07-18T07:28:50;23.90;40.20
44063;DHT22;29727;47.606;19.130;2022-07-18T07:31:16;24.00;41.70
44063;DHT22;29727;47.606;19.130;2022-07-18T07:33:41;24.10;41.70
44063;DHT22;29727;47.606;19.130;2022-07-18T07:36:10;24.20;39.90
44063;DHT22;29727;47.606;19.130;2022-07-18T07:38:36;24.30;41.30
44063;DHT22;29727;47.606;19.130;2022-07-18T07:41:02;24.40;41.50
44063;DHT22;29727;47.606;19.130;2022-07-18T07:43:28;24.50;39.30
44063;DHT22;29727;47.606;19.130;2022-07-18T07:45:54;24.60;40.10
44063;DHT22;29727;47.606;19.130;2022-07-18T07:48:22;24.70;37.60
44063;DHT22;29727;47.606;19.130;2022-07-18T07:50:48;24.80;39.50
44063;DHT22;29727;47.606;19.130;2022-07-18T07:53:16;24.90;39.70
44063;DHT22;29727;47.606;19.130;2022-07-18T07:55:42;25.00;39.30
44063;DHT22;29727;47.606;19.130;2022-07-18T07:58:07;25.20;38.20
44063;DHT22;29727;47.606;19.130;2022-07-18T08:00:35;25.30;40.00
44063;DHT22;29727;47.606;19.130;2022-07-18T08:03:03;25.30;39.70
44063;DHT22;29727;47.606;19.130;2022-07-18T08:05:35;25.50;36.40
44063;DHT22;29727;47.606;19.130;2022-07-18T08:08:01;25.50;36.40
44063;DHT22;29727;47.606;19.130;2022-07-18T08:10:28;25.60;37.90
44063;DHT22;29727;47.606;19.130;2022-07-18T08:12:54;25.70;37.10
44063;DHT22;29727;47.606;19.130;2022-07-18T08:15:19;25.80;37.50
44063;DHT22;29727;47.606;19.130;2022-07-18T08:17:45;25.90;37.50
44063;DHT22;29727;47.606;19.130;2022-07-18T08:20:11;25.90;36.20
44063;DHT22;29727;47.606;19.130;2022-07-18T08:22:59;26.00;37.00
44063;DHT22;29727;47.606;19.130;2022-07-18T08:25:30;26.10;38.20
44063;DHT22;29727;47.606;19.130;2022-07-18T08:27:58;26.20;36.40
44063;DHT22;29727;47.606;19.130;2022-07-18T08:30:24;26.30;36.60
44063;DHT22;29727;47.606;19.130;2022-07-18T08:32:50;26.40;37.00
44063;DHT22;29727;47.606;19.130;2022-07-18T08:35:16;26.50;35.60
44063;DHT22;29727;47.606;19.130;2022-07-18T08:37:41;26.60;36.50
44063;DHT22;29727;47.606;19.130;2022-07-18T08:40:07;26.60;34.40
44063;DHT22;29727;47.606;19.130;2022-07-18T08:42:34;26.70;37.50
44063;DHT22;29727;47.606;19.130;2022-07-18T08:45:01;26.70;35.30
44063;DHT22;29727;47.606;19.130;2022-07-18T08:47:29;26.80;36.40
44063;DHT22;29727;47.606;19.130;2022-07-18T08:49:55;26.90;35.20
44063;DHT22;29727;47.606;19.130;2022-07-18T08:52:21;27.00;36.20
44063;DHT22;29727;47.606;19.130;2022-07-18T08:54:46;27.00;34.90
44063;DHT22;29727;47.606;19.130;2022-07-18T08:57:17;27.20;35.30
44063;DHT22;29727;47.606;19.130;2022-07-18T08:59:43;27.20;36.80
44063;DHT22;29727;47.606;19.130;2022-07-18T09:02:09;27.40;36.60
44063;DHT22;29727;47.606;19.130;2022-07-18T09:04:42;27.40;35.10
44063;DHT22;29727;47.606;19.130;2022-07-18T09:07:10;27.50;33.90
44063;DHT22;29727;47.606;19.130;2022-07-18T09:09:53;27.60;33.00
44063;DHT22;29727;47.606;19.130;2022-07-18T09:12:19;27.70;32.40
44063;DHT22;29727;47.606;19.130;2022-07-18T09:14:46;27.70;33.10
44063;DHT22;29727;47.606;19.130;2022-07-18T09:17:19;27.80;34.70
44063;DHT22;29727;47.606;19.130;2022-07-18T09:20:08;27.80;34.50
44063;DHT22;29727;47.606;19.130;2022-07-18T09:22:37;27.90;33.70
44063;DHT22;29727;47.606;19.130;2022-07-18T09:27:45;28.20;33.00
44063;DHT22;29727;47.606;19.130;2022-07-18T09:32:53;28.40;32.30
44063;DHT22;29727;47.606;19.130;2022-07-18T09:35:25;28.50;33.00
44063;DHT22;29727;47.606;19.130;2022-07-18T09:40:25;28.60;32.60
44063;DHT22;29727;47.606;19.130;2022-07-18T09:42:53;28.70;33.30
44063;DHT22;29727;47.606;19.130;2022-07-18T09:45:33;28.80;31.60
44063;DHT22;29727;47.606;19.130;2022-07-18T09:48:08;28.80;31.50
44063;DHT22;29727;47.606;19.130;2022-07-18T09:53:23;28.80;31.50
44063;DHT22;29727;47.606;19.130;2022-07-18T09:55:50;28.90;34.10
44063;DHT22;29727;47.606;19.130;2022-07-18T09:58:19;28.90;32.50
44063;DHT22;29727;47.606;19.130;2022-07-18T10:00:45;29.00;32.80
44063;DHT22;29727;47.606;19.130;2022-07-18T10:03:12;29.10;34.00
44063;DHT22;29727;47.606;19.130;2022-07-18T10:05:39;29.30;33.70
44063;DHT22;29727;47.606;19.130;2022-07-18T10:08:09;29.40;32.60
44063;DHT22;29727;47.606;19.130;2022-07-18T10:10:36;29.50;30.80
44063;DHT22;29727;47.606;19.130;2022-07-18T10:13:03;29.50;30.80
44063;DHT22;29727;47.606;19.130;2022-07-18T10:15:32;29.60;32.00
44063;DHT22;29727;47.606;19.130;2022-07-18T10:17:59;29.70;32.80
44063;DHT22;29727;47.606;19.130;2022-07-18T10:20:52;29.80;30.40
44063;DHT22;29727;47.606;19.130;2022-07-18T10:23:29;29.90;32.70
44063;DHT22;29727;47.606;19.130;2022-07-18T10:29:09;30.10;31.70
44063;DHT22;29727;47.606;19.130;2022-07-18T10:39:17;30.50;31.40
44063;DHT22;29727;47.606;19.130;2022-07-18T10:47:05;30.90;32.10
44063;DHT22;29727;47.606;19.130;2022-07-18T10:57:34;31.20;29.00
44063;DHT22;29727;47.606;19.130;2022-07-18T11:00:05;31.30;30.70
44063;DHT22;29727;47.606;19.130;2022-07-18T11:02:49;31.40;29.70
44063;DHT22;29727;47.606;19.130;2022-07-18T11:16:23;31.90;29.00
44063;DHT22;29727;47.606;19.130;2022-07-18T11:21:20;32.00;29.40
44063;DHT22;29727;47.606;19.130;2022-07-18T11:23:48;32.10;29.50
44063;DHT22;29727;47.606;19.130;2022-07-18T11:26:22;32.10;28.20
44063;DHT22;29727;47.606;19.130;2022-07-18T11:28:57;32.00;28.70
44063;DHT22;29727;47.606;19.130;2022-07-18T11:31:26;32.00;27.80
44063;DHT22;29727;47.606;19.130;2022-07-18T11:33:53;31.80;28.70
44063;DHT22;29727;47.606;19.130;2022-07-18T11:36:21;31.70;29.00
44063;DHT22;29727;47.606;19.130;2022-07-18T11:38:56;31.50;28.60
44063;DHT22;29727;47.606;19.130;2022-07-18T11:41:22;31.40;28.90
44063;DHT22;29727;47.606;19.130;2022-07-18T11:43:50;31.40;28.70
44063;DHT22;29727;47.606;19.130;2022-07-18T11:46:18;31.40;28.70
44063;DHT22;29727;47.606;19.130;2022-07-18T11:48:46;31.50;28.40
44063;DHT22;29727;47.606;19.130;2022-07-18T11:53:52;31.60;29.80
44063;DHT22;29727;47.606;19.130;2022-07-18T11:56:21;31.70;28.70
44063;DHT22;29727;47.606;19.130;2022-07-18T11:58:48;31.70;28.80
44063;DHT22;29727;47.606;19.130;2022-07-18T12:01:15;31.70;28.20
44063;DHT22;29727;47.606;19.130;2022-07-18T12:03:46;31.60;30.00
44063;DHT22;29727;47.606;19.130;2022-07-18T12:06:13;31.60;28.50
44063;DHT22;29727;47.606;19.130;2022-07-18T12:08:42;31.60;29.20
44063;DHT22;29727;47.606;19.130;2022-07-18T12:19:01;32.20;28.40
44063;DHT22;29727;47.606;19.130;2022-07-18T12:21:51;32.40;27.90
44063;DHT22;29727;47.606;19.130;2022-07-18T12:24:38;32.60;28.20
44063;DHT22;29727;47.606;19.130;2022-07-18T12:27:11;32.60;27.80
44063;DHT22;29727;47.606;19.130;2022-07-18T12:30:11;32.70;27.10
44063;DHT22;29727;47.606;19.130;2022-07-18T12:32:42;32.80;27.90
44063;DHT22;29727;47.606;19.130;2022-07-18T12:38:33;32.90;28.40
44063;DHT22;29727;47.606;19.130;2022-07-18T12:40:50;33.10;29.20
44063;DHT22;29727;47.606;19.130;2022-07-18T12:43:35;33.30;29.50
44063;DHT22;29727;47.606;19.130;2022-07-18T12:46:04;33.50;29.10
44063;DHT22;29727;47.606;19.130;2022-07-18T12:48:32;33.70;27.30
44063;DHT22;29727;47.606;19.130;2022-07-18T12:51:00;33.70;26.30
44063;DHT22;29727;47.606;19.130;2022-07-18T12:53:28;33.50;26.50
44063;DHT22;29727;47.606;19.130;2022-07-18T12:55:54;33.30;27.80
44063;DHT22;29727;47.606;19.130;2022-07-18T12:58:20;33.30;26.90
44063;DHT22;29727;47.606;19.130;2022-07-18T13:00:46;33.30;27.10
44063;DHT22;29727;47.606;19.130;2022-07-18T13:03:13;33.30;26.20
44063;DHT22;29727;47.606;19.130;2022-07-18T13:05:39;33.30;26.20
44063;DHT22;29727;47.606;19.130;2022-07-18T13:08:05;33.30;26.00
44063;DHT22;29727;47.606;19.130;2022-07-18T13:10:35;33.10;26.30
44063;DHT22;29727;47.606;19.130;2022-07-18T13:13:05;33.10;26.30
44063;DHT22;29727;47.606;19.130;2022-07-18T13:15:31;33.00;26.40
44063;DHT22;29727;47.606;19.130;2022-07-18T13:17:57;33.00;25.80
44063;DHT22;29727;47.606;19.130;2022-07-18T13:20:23;33.00;26.10
44063;DHT22;29727;47.606;19.130;2022-07-18T13:22:49;33.00;26.10
44063;DHT22;29727;47.606;19.130;2022-07-18T13:25:14;32.90;25.70
44063;DHT22;29727;47.606;19.130;2022-07-18T13:27:40;32.90;27.20
44063;DHT22;29727;47.606;19.130;2022-07-18T13:30:07;32.90;25.70
44063;DHT22;29727;47.606;19.130;2022-07-18T13:32:34;32.90;26.00
44063;DHT22;29727;47.606;19.130;2022-07-18T13:35:00;33.00;26.00
44063;DHT22;29727;47.606;19.130;2022-07-18T13:37:26;33.20;26.40
44063;DHT22;29727;47.606;19.130;2022-07-18T13:39:52;33.30;26.40
44063;DHT22;29727;47.606;19.130;2022-07-18T13:42:17;33.40;27.00
44063;DHT22;29727;47.606;19.130;2022-07-18T13:44:43;33.50;26.10
44063;DHT22;29727;47.606;19.130;2022-07-18T13:47:15;33.60;27.00
44063;DHT22;29727;47.606;19.130;2022-07-18T13:49:41;33.70;27.10
44063;DHT22;29727;47.606;19.130;2022-07-18T13:52:07;33.80;26.20
44063;DHT22;29727;47.606;19.130;2022-07-18T13:54:33;34.00;26.10
44063;DHT22;29727;47.606;19.130;2022-07-18T13:57:00;34.00;25.90
44063;DHT22;29727;47.606;19.130;2022-07-18T13:59:25;34.20;25.60
44063;DHT22;29727;47.606;19.130;2022-07-18T14:01:51;34.20;25.10
44063;DHT22;29727;47.606;19.130;2022-07-18T14:04:18;34.30;25.10
44063;DHT22;29727;47.606;19.130;2022-07-18T14:06:44;34.20;26.60
44063;DHT22;29727;47.606;19.130;2022-07-18T14:09:10;34.30;25.70
44063;DHT22;29727;47.606;19.130;2022-07-18T14:11:36;34.20;24.90
44063;DHT22;29727;47.606;19.130;2022-07-18T14:14:03;34.20;24.70
44063;DHT22;29727;47.606;19.130;2022-07-18T14:16:30;34.20;25.00
44063;DHT22;29727;47.606;19.130;2022-07-18T14:18:56;34.20;25.80
44063;DHT22;29727;47.606;19.130;2022-07-18T14:21:21;34.10;25.70
44063;DHT22;29727;47.606;19.130;2022-07-18T14:23:48;34.00;25.40
44063;DHT22;29727;47.606;19.130;2022-07-18T14:26:14;33.90;25.20
44063;DHT22;29727;47.606;19.130;2022-07-18T14:28:40;33.70;25.40
44063;DHT22;29727;47.606;19.130;2022-07-18T14:31:05;33.50;25.70
44063;DHT22;29727;47.606;19.130;2022-07-18T14:33:31;33.40;25.80
44063;DHT22;29727;47.606;19.130;2022-07-18T14:35:57;33.30;25.60
44063;DHT22;29727;47.606;19.130;2022-07-18T14:38:22;33.10;26.50
44063;DHT22;29727;47.606;19.130;2022-07-18T14:40:48;33.10;26.70
44063;DHT22;29727;47.606;19.130;2022-07-18T14:43:14;33.10;25.60
44063;DHT22;29727;47.606;19.130;2022-07-18T14:45:41;33.00;25.80
44063;DHT22;29727;47.606;19.130;2022-07-18T14:48:07;33.10;26.10
44063;DHT22;29727;47.606;19.130;2022-07-18T14:50:32;33.00;26.90
44063;DHT22;29727;47.606;19.130;2022-07-18T14:52:58;33.00;27.60
44063;DHT22;29727;47.606;19.130;2022-07-18T14:55:24;33.00;26.60
44063;DHT22;29727;47.606;19.130;2022-07-18T14:57:50;33.00;26.60
44063;DHT22;29727;47.606;19.130;2022-07-18T15:00:15;33.00;26.90
44063;DHT22;29727;47.606;19.130;2022-07-18T15:02:41;33.00;27.30
44063;DHT22;29727;47.606;19.130;2022-07-18T15:05:07;33.00;27.80
44063;DHT22;29727;47.606;19.130;2022-07-18T15:07:33;33.10;27.00
44063;DHT22;29727;47.606;19.130;2022-07-18T15:09:59;33.10;26.60
44063;DHT22;29727;47.606;19.130;2022-07-18T15:12:25;33.10;27.50
44063;DHT22;29727;47.606;19.130;2022-07-18T15:14:51;33.10;27.20
44063;DHT22;29727;47.606;19.130;2022-07-18T15:17:20;33.10;27.10
44063;DHT22;29727;47.606;19.130;2022-07-18T15:19:46;33.00;27.80
44063;DHT22;29727;47.606;19.130;2022-07-18T15:22:12;33.00;27.40
44063;DHT22;29727;47.606;19.130;2022-07-18T15:24:38;33.00;27.10
44063;DHT22;29727;47.606;19.130;2022-07-18T15:27:03;33.00;26.60
44063;DHT22;29727;47.606;19.130;2022-07-18T15:29:29;32.90;26.40
44063;DHT22;29727;47.606;19.130;2022-07-18T15:31:55;32.80;26.40
44063;DHT22;29727;47.606;19.130;2022-07-18T15:34:21;32.60;26.80
44063;DHT22;29727;47.606;19.130;2022-07-18T15:36:46;32.50;26.70
44063;DHT22;29727;47.606;19.130;2022-07-18T15:39:12;32.30;27.00
44063;DHT22;29727;47.606;19.130;2022-07-18T15:41:38;32.20;27.40
44063;DHT22;29727;47.606;19.130;2022-07-18T15:44:08;32.20;27.80
44063;DHT22;29727;47.606;19.130;2022-07-18T15:46:34;32.10;28.20
44063;DHT22;29727;47.606;19.130;2022-07-18T15:49:00;32.10;27.80
44063;DHT22;29727;47.606;19.130;2022-07-18T15:51:25;31.90;27.50
44063;DHT22;29727;47.606;19.130;2022-07-18T15:53:51;31.90;27.50
44063;DHT22;29727;47.606;19.130;2022-07-18T15:56:17;31.80;27.30
44063;DHT22;29727;47.606;19.130;2022-07-18T15:58:42;31.80;27.20
44063;DHT22;29727;47.606;19.130;2022-07-18T16:01:08;31.70;26.80
44063;DHT22;29727;47.606;19.130;2022-07-18T16:03:34;31.60;27.30
44063;DHT22;29727;47.606;19.130;2022-07-18T16:05:59;31.50;27.20
44063;DHT22;29727;47.606;19.130;2022-07-18T16:08:25;31.50;27.00
44063;DHT22;29727;47.606;19.130;2022-07-18T16:10:53;31.50;27.10
44063;DHT22;29727;47.606;19.130;2022-07-18T16:13:19;31.50;27.90
44063;DHT22;29727;47.606;19.130;2022-07-18T16:15:44;31.40;27.60
44063;DHT22;29727;47.606;19.130;2022-07-18T16:18:11;31.40;27.50